createdAt,value
2024-02-23T00:01:19.573Z,67.76
2024-02-23T00:03:47.681Z,68.05
2024-02-23T00:06:16.086Z,67.34
2024-02-23T00:08:44.200Z,67.03
2024-02-23T00:11:12.474Z,67.65
2024-02-23T00:13:40.360Z,67.41
2024-02-23T00:16:08.541Z,67.58
2024-02-23T00:18:36.383Z,67.90
2024-02-23T00:21:05.783Z,67.99
2024-02-23T00:23:33.714Z,67.24
2024-02-23T00:26:01.947Z,67.93
2024-02-23T00:28:29.750Z,68.26
2024-02-23T00:30:57.872Z,68.49
2024-02-23T00:33:25.642Z,68.85
2024-02-23T00:35:53.697Z,68.82
2024-02-23T00:38:21.506Z,68.63
2024-02-23T00:40:49.683Z,67.86
2024-02-23T00:43:17.556Z,68.27
2024-02-23T00:45:45.589Z,68.29
2024-02-23T00:48:15.025Z,68.59
2024-02-23T00:50:43.236Z,68.15
2024-02-23T00:53:11.479Z,68.03
2024-02-23T00:55:39.631Z,68.05
2024-02-23T00:58:07.632Z,68.82
2024-02-23T01:00:35.779Z,68.55
2024-02-23T01:03:03.792Z,68.10
2024-02-23T01:05:32.031Z,68.72
2024-02-23T01:07:59.936Z,68.19
2024-02-23T01:10:28.566Z,68.60
2024-02-23T01:12:56.410Z,68.26
2024-02-23T01:15:24.658Z,67.27
2024-02-23T01:17:52.439Z,68.11
2024-02-23T01:20:20.518Z,68.15
2024-02-23T01:22:48.496Z,68.23
2024-02-23T01:25:16.899Z,68.41
2024-02-23T01:27:47.730Z,68.12
2024-02-23T01:30:16.016Z,68.27
2024-02-23T01:32:44.056Z,68.86
2024-02-23T01:35:12.231Z,68.78
2024-02-23T01:37:40.186Z,68.41
2024-02-23T01:40:09.633Z,68.88
2024-02-23T01:42:37.449Z,68.35
2024-02-23T01:45:06.227Z,68.72
2024-02-23T01:47:34.194Z,68.46
2024-02-23T01:50:03.063Z,69.42
2024-02-23T01:52:31.111Z,68.90
2024-02-23T01:54:59.662Z,68.97
2024-02-23T01:57:40.223Z,68.88
2024-02-23T02:00:19.402Z,69.43
2024-02-23T02:02:54.795Z,70.11
2024-02-23T02:05:24.118Z,69.95
2024-02-23T02:07:55.467Z,69.39
2024-02-23T02:10:23.580Z,69.74
2024-02-23T02:12:51.412Z,69.35
2024-02-23T02:15:19.515Z,69.51
2024-02-23T02:17:47.653Z,69.07
2024-02-23T02:20:16.104Z,69.80
2024-02-23T02:22:43.946Z,69.15
2024-02-23T02:25:15.038Z,69.21
2024-02-23T02:27:43.574Z,69.31
2024-02-23T02:30:12.584Z,69.38
2024-02-23T02:32:42.042Z,68.47
2024-02-23T02:35:16.058Z,68.69
2024-02-23T02:37:44.037Z,69.58
2024-02-23T02:40:12.291Z,69.21
2024-02-23T02:42:40.039Z,69.34
2024-02-23T02:45:08.393Z,69.03
2024-02-23T02:47:37.626Z,68.93
2024-02-23T02:50:08.012Z,68.46
2024-02-23T02:52:35.949Z,69.35
2024-02-23T02:55:04.167Z,69.44
2024-02-23T02:57:31.953Z,70.13
2024-02-23T03:00:00.385Z,70.44
2024-02-23T03:02:28.379Z,70.61
2024-02-23T03:04:56.886Z,69.86
2024-02-23T03:07:24.763Z,70.08
2024-02-23T03:09:52.785Z,70.30
2024-02-23T03:12:20.709Z,71.33
2024-02-23T03:14:48.825Z,71.43
2024-02-23T03:17:16.681Z,71.21
2024-02-23T03:19:44.991Z,71.90
2024-02-23T03:22:12.889Z,72.54
2024-02-23T03:24:42.030Z,73.26
2024-02-23T03:27:09.842Z,73.57
2024-02-23T03:29:40.707Z,73.51
2024-02-23T03:32:09.353Z,73.50
2024-02-23T03:34:38.256Z,74.93
2024-02-23T03:37:06.269Z,75.73
2024-02-23T03:39:34.720Z,76.08
2024-02-23T03:42:02.466Z,76.91
2024-02-23T03:44:30.757Z,78.00
2024-02-23T03:46:58.624Z,78.76
2024-02-23T03:49:28.052Z,79.68
2024-02-23T03:51:57.071Z,80.49
2024-02-23T03:54:25.219Z,81.57
2024-02-23T03:56:53.011Z,82.21
2024-02-23T03:59:21.666Z,83.22
2024-02-23T04:01:49.461Z,83.38
2024-02-23T04:04:19.273Z,83.82
2024-02-23T04:06:47.204Z,85.22
2024-02-23T04:09:15.275Z,85.33
2024-02-23T04:11:43.279Z,86.03
2024-02-23T04:14:11.425Z,86.76
2024-02-23T04:16:39.174Z,87.07
2024-02-23T04:19:08.221Z,88.20
2024-02-23T04:21:36.841Z,88.16
2024-02-23T04:24:05.086Z,88.23
2024-02-23T04:26:33.295Z,88.38
2024-02-23T04:29:01.440Z,88.36
2024-02-23T04:31:29.317Z,89.11
2024-02-23T04:33:57.406Z,88.94
2024-02-23T04:36:25.746Z,89.39
2024-02-23T04:38:53.793Z,89.68
2024-02-23T04:41:24.735Z,89.81
2024-02-23T04:43:53.396Z,89.72
2024-02-23T04:46:23.838Z,90.45
2024-02-23T04:48:51.901Z,89.85
2024-02-23T04:51:20.267Z,90.01
2024-02-23T04:53:48.409Z,90.26
2024-02-23T04:56:16.234Z,90.34
2024-02-23T04:58:45.458Z,90.06
2024-02-23T05:01:13.905Z,90.31
2024-02-23T05:03:42.517Z,90.69
2024-02-23T05:06:10.414Z,90.38
2024-02-23T05:08:38.544Z,90.56
2024-02-23T05:11:06.461Z,91.00
2024-02-23T05:13:34.524Z,91.23
2024-02-23T05:16:02.313Z,90.91
2024-02-23T05:18:30.358Z,90.98
2024-02-23T05:20:58.148Z,90.74
2024-02-23T05:23:26.251Z,90.66
2024-02-23T05:25:54.170Z,90.76
2024-02-23T05:28:22.303Z,90.36
2024-02-23T05:30:50.077Z,90.10
2024-02-23T05:33:21.741Z,90.95
2024-02-23T05:35:53.497Z,90.81
2024-02-23T05:38:21.672Z,91.00
2024-02-23T05:40:49.700Z,90.65
2024-02-23T05:43:18.071Z,90.94
2024-02-23T05:45:46.655Z,91.25
2024-02-23T05:48:14.969Z,91.05
2024-02-23T05:50:42.921Z,91.58
2024-02-23T05:53:11.377Z,92.35
2024-02-23T05:55:39.140Z,92.12
2024-02-23T05:58:07.490Z,91.86
2024-02-23T06:00:35.558Z,91.72
2024-02-23T06:03:04.342Z,91.85
2024-02-23T06:05:32.583Z,92.06
2024-02-23T06:08:01.064Z,91.49
2024-02-23T06:10:28.898Z,91.48
2024-02-23T06:12:58.277Z,91.99
2024-02-23T06:15:26.624Z,91.92
2024-02-23T06:17:55.057Z,92.02
2024-02-23T06:20:22.836Z,92.05
2024-02-23T06:22:51.061Z,91.42
2024-02-23T06:25:19.060Z,91.72
2024-02-23T06:27:47.214Z,92.35
2024-02-23T06:30:15.166Z,92.67
2024-02-23T06:32:44.097Z,92.56
2024-02-23T06:35:13.468Z,92.73
2024-02-23T06:37:42.272Z,92.37
2024-02-23T06:40:10.447Z,92.11
2024-02-23T06:42:38.518Z,92.23
2024-02-23T06:45:06.902Z,91.73
2024-02-23T06:47:35.151Z,92.17
2024-02-23T06:50:04.705Z,92.68
2024-02-23T06:52:34.419Z,92.87
2024-02-23T06:55:02.252Z,92.92
2024-02-23T06:57:32.175Z,91.96
2024-02-23T07:00:00.057Z,91.56
2024-02-23T07:02:28.364Z,91.09
2024-02-23T07:04:58.047Z,91.04
2024-02-23T07:07:29.561Z,91.46
2024-02-23T07:09:57.820Z,91.45
2024-02-23T07:12:28.252Z,91.89
2024-02-23T07:14:58.615Z,91.79
2024-02-23T07:17:26.820Z,91.97
2024-02-23T07:19:54.783Z,92.42
2024-02-23T07:22:22.915Z,92.07
2024-02-23T07:24:50.775Z,91.91
2024-02-23T07:27:19.405Z,91.87
2024-02-23T07:29:47.399Z,92.54
2024-02-23T07:32:16.661Z,92.74
2024-02-23T07:34:44.834Z,92.61
2024-02-23T07:37:12.917Z,91.88
2024-02-23T07:39:41.182Z,91.68
2024-02-23T07:42:11.550Z,91.44
2024-02-23T07:44:39.755Z,91.93
2024-02-23T07:47:10.747Z,92.09
2024-02-23T07:49:38.650Z,92.15
2024-02-23T07:52:06.969Z,91.92
2024-02-23T07:54:34.884Z,91.94
2024-02-23T07:57:05.685Z,91.37
2024-02-23T07:59:34.412Z,91.27
2024-02-23T08:02:03.050Z,90.94
2024-02-23T08:04:31.359Z,91.23
2024-02-23T08:07:01.343Z,91.19
2024-02-23T08:09:29.949Z,91.70
2024-02-23T08:11:58.180Z,91.56
2024-02-23T08:14:27.677Z,91.52
2024-02-23T08:16:55.795Z,91.36
2024-02-23T08:19:25.216Z,91.55
2024-02-23T08:21:53.437Z,91.57
2024-02-23T08:24:23.871Z,91.59
2024-02-23T08:26:51.937Z,91.72
2024-02-23T08:29:20.065Z,91.86
2024-02-23T08:31:48.476Z,92.02
2024-02-23T08:34:16.375Z,91.87
2024-02-23T08:36:44.744Z,91.45
2024-02-23T08:39:12.699Z,91.29
2024-02-23T08:41:40.757Z,91.63
2024-02-23T08:44:08.591Z,91.86
2024-02-23T08:46:38.574Z,91.02
2024-02-23T08:49:06.612Z,91.10
2024-02-23T08:51:34.841Z,90.52
2024-02-23T08:54:05.788Z,90.45
2024-02-23T08:56:37.982Z,90.51
2024-02-23T08:59:05.916Z,90.54
2024-02-23T09:01:34.212Z,90.38
2024-02-23T09:04:02.413Z,90.58
2024-02-23T09:06:30.658Z,90.93
2024-02-23T09:08:58.738Z,90.90
2024-02-23T09:11:26.866Z,90.76
2024-02-23T09:13:54.730Z,90.99
2024-02-23T09:16:25.779Z,90.22
2024-02-23T09:18:53.683Z,90.00
2024-02-23T09:21:24.307Z,90.18
2024-02-23T09:23:52.207Z,89.87
2024-02-23T09:26:20.312Z,89.18
2024-02-23T09:28:48.196Z,88.13
2024-02-23T09:31:16.279Z,87.57
2024-02-23T09:33:45.308Z,86.98
2024-02-23T09:36:20.675Z,86.82
2024-02-23T09:38:49.718Z,87.11
2024-02-23T09:41:22.420Z,86.09
2024-02-23T09:43:52.338Z,85.99
2024-02-23T09:46:20.745Z,85.59
2024-02-23T09:48:51.622Z,85.07
2024-02-23T09:51:21.676Z,85.13
2024-02-23T09:53:52.877Z,84.87
2024-02-23T09:56:22.548Z,84.50
2024-02-23T09:58:51.730Z,84.82
2024-02-23T10:01:28.799Z,83.67
2024-02-23T10:03:59.490Z,84.16
2024-02-23T10:06:27.973Z,84.39
2024-02-23T10:08:56.307Z,85.27
2024-02-23T10:11:25.772Z,85.37
2024-02-23T10:13:54.002Z,85.39
2024-02-23T10:16:23.248Z,85.72
2024-02-23T10:18:51.557Z,85.33
2024-02-23T10:21:19.893Z,85.70
2024-02-23T10:23:51.558Z,85.49
2024-02-23T10:26:21.709Z,86.04
2024-02-23T10:28:50.032Z,85.31
2024-02-23T10:31:18.371Z,86.42
2024-02-23T10:33:49.018Z,86.11
2024-02-23T10:36:18.973Z,85.86
2024-02-23T10:38:48.471Z,85.43
2024-02-23T10:41:18.879Z,86.29
2024-02-23T10:43:49.898Z,86.59
2024-02-23T10:46:19.667Z,86.01
2024-02-23T10:48:49.902Z,86.07
2024-02-23T10:51:20.952Z,86.54
2024-02-23T10:53:51.452Z,87.23
2024-02-23T10:56:20.591Z,86.65
2024-02-23T10:58:48.925Z,86.60
2024-02-23T11:01:19.451Z,87.49
2024-02-23T11:03:51.786Z,87.34
2024-02-23T11:06:22.779Z,87.17
2024-02-23T11:08:52.805Z,87.50
2024-02-23T11:11:20.870Z,87.38
2024-02-23T11:13:48.970Z,87.42
2024-02-23T11:16:27.327Z,86.96
2024-02-23T11:19:12.629Z,87.33
2024-02-23T11:21:40.927Z,87.24
2024-02-23T11:24:09.059Z,87.48
2024-02-23T11:26:39.212Z,87.33
2024-02-23T11:29:16.996Z,87.65
2024-02-23T11:31:48.330Z,87.21
2024-02-23T11:34:25.780Z,86.89
2024-02-23T11:36:54.549Z,86.95
2024-02-23T11:39:24.518Z,87.14
2024-02-23T11:41:52.648Z,87.25
2024-02-23T11:44:21.501Z,87.02
2024-02-23T11:46:49.388Z,87.30
2024-02-23T11:49:17.691Z,87.26
2024-02-23T11:51:45.914Z,86.49
2024-02-23T11:54:15.070Z,86.73
2024-02-23T11:56:45.317Z,86.62
2024-02-23T11:59:14.269Z,86.13
2024-02-23T12:01:42.595Z,85.13
2024-02-23T12:04:10.805Z,85.36
2024-02-23T12:06:38.685Z,85.51
2024-02-23T12:09:07.977Z,85.82
2024-02-23T12:11:36.520Z,85.53
2024-02-23T12:14:08.920Z,85.81
2024-02-23T12:16:37.773Z,86.19
2024-02-23T12:19:06.076Z,86.90
2024-02-23T12:21:37.660Z,86.30
2024-02-23T12:24:10.062Z,86.36
2024-02-23T12:26:38.492Z,86.32
2024-02-23T12:29:07.640Z,86.40
2024-02-23T12:31:35.986Z,86.28
2024-02-23T12:34:04.322Z,86.19
2024-02-23T12:36:36.273Z,86.07
2024-02-23T12:39:04.720Z,84.49
2024-02-23T12:41:33.111Z,84.27
2024-02-23T12:44:01.385Z,84.78
2024-02-23T12:46:29.228Z,85.05
2024-02-23T12:48:57.293Z,84.86
2024-02-23T12:51:28.387Z,84.55
2024-02-23T12:53:56.896Z,84.75
2024-02-23T12:56:26.454Z,84.71
2024-02-23T12:58:55.616Z,84.06
2024-02-23T13:01:23.856Z,84.59
2024-02-23T13:03:52.083Z,85.03
2024-02-23T13:06:20.119Z,84.21
2024-02-23T13:08:48.300Z,84.54
2024-02-23T13:11:16.327Z,84.34
2024-02-23T13:13:45.603Z,84.54
2024-02-23T13:16:16.247Z,84.54
2024-02-23T13:18:45.349Z,85.21
2024-02-23T13:21:14.144Z,85.48
2024-02-23T13:23:44.499Z,85.01
2024-02-23T13:26:15.608Z,85.08
2024-02-23T13:28:45.467Z,85.47
2024-02-23T13:31:14.943Z,85.60
2024-02-23T13:33:43.355Z,85.21
2024-02-23T13:36:13.173Z,85.06
2024-02-23T13:38:43.145Z,85.64
2024-02-23T13:41:12.916Z,85.54
2024-02-23T13:43:41.382Z,85.96
2024-02-23T13:46:09.252Z,85.07
2024-02-23T13:48:38.270Z,86.01
2024-02-23T13:51:06.866Z,85.86
2024-02-23T13:53:37.493Z,85.47
2024-02-23T13:56:05.978Z,85.99
2024-02-23T13:58:34.266Z,85.42
2024-02-23T14:01:02.284Z,85.76
2024-02-23T14:03:31.946Z,85.88
2024-02-23T14:06:00.162Z,86.85
2024-02-23T14:08:28.459Z,86.61
2024-02-23T14:10:56.384Z,86.01
2024-02-23T14:13:24.656Z,85.96
2024-02-23T14:15:52.606Z,85.92
2024-02-23T14:18:20.836Z,85.55
2024-02-23T14:20:48.736Z,85.97
2024-02-23T14:23:17.002Z,85.80
2024-02-23T14:25:44.788Z,85.81
2024-02-23T14:28:13.517Z,85.04
2024-02-23T14:30:44.123Z,85.28
2024-02-23T14:33:12.277Z,86.20
2024-02-23T14:35:40.165Z,86.48
2024-02-23T14:38:08.592Z,86.76
2024-02-23T14:40:36.601Z,87.07
2024-02-23T14:43:05.997Z,87.20
2024-02-23T14:45:34.410Z,87.01
2024-02-23T14:48:02.619Z,87.65
2024-02-23T14:50:30.762Z,87.77
2024-02-23T14:52:59.002Z,88.16
2024-02-23T14:55:27.068Z,87.81
2024-02-23T14:57:56.165Z,88.19
2024-02-23T15:00:23.954Z,87.84
2024-02-23T15:02:52.077Z,88.82
2024-02-23T15:05:20.454Z,88.26
2024-02-23T15:07:48.632Z,88.12
2024-02-23T15:10:16.499Z,88.21
2024-02-23T15:12:44.684Z,89.22
2024-02-23T15:15:12.677Z,89.52
2024-02-23T15:20:11.624Z,88.71
2024-02-23T15:22:43.567Z,89.43
2024-02-23T15:25:11.498Z,89.28
2024-02-23T15:27:39.571Z,88.91
2024-02-23T15:30:11.772Z,88.98
2024-02-23T15:32:40.209Z,89.37
2024-02-23T15:35:08.429Z,89.16
2024-02-23T15:37:36.688Z,88.95
2024-02-23T15:40:07.544Z,89.10
2024-02-23T15:42:37.060Z,89.78
2024-02-23T15:45:08.399Z,89.48
2024-02-23T15:47:36.677Z,89.67
2024-02-23T15:50:22.716Z,90.18
2024-02-23T15:52:53.114Z,89.84
2024-02-23T15:55:21.616Z,89.96
2024-02-23T15:57:49.825Z,90.00
2024-02-23T16:00:18.238Z,89.79
2024-02-23T16:02:46.541Z,90.48
2024-02-23T16:05:14.547Z,90.78
2024-02-23T16:07:42.873Z,90.83
2024-02-23T16:10:13.920Z,90.88
2024-02-23T16:12:42.285Z,90.60
2024-02-23T16:15:10.434Z,91.04
2024-02-23T16:17:38.744Z,91.08
2024-02-23T16:20:07.543Z,90.78
2024-02-23T16:22:35.740Z,91.25
2024-02-23T16:25:04.311Z,91.15
2024-02-23T16:27:32.523Z,91.04
2024-02-23T16:30:01.145Z,91.18
2024-02-23T16:32:29.495Z,91.60
2024-02-23T16:34:57.457Z,91.58
2024-02-23T16:37:26.030Z,91.40
2024-02-23T16:39:54.021Z,91.61
2024-02-23T16:42:22.250Z,91.39
2024-02-23T16:44:50.037Z,91.65
2024-02-23T16:47:18.172Z,92.06
2024-02-23T16:49:46.157Z,91.68
2024-02-23T16:52:14.532Z,92.27
2024-02-23T16:54:42.375Z,92.15
2024-02-23T16:57:10.624Z,92.32
2024-02-23T16:59:38.590Z,91.95
2024-02-23T17:02:06.803Z,92.53
2024-02-23T17:04:34.787Z,92.56
2024-02-23T17:07:03.148Z,92.54
2024-02-23T17:09:31.084Z,92.34
2024-02-23T17:11:59.228Z,92.42
2024-02-23T17:14:27.134Z,92.47
2024-02-23T17:16:55.192Z,92.60
2024-02-23T17:19:24.372Z,92.72
2024-02-23T17:21:52.472Z,92.76
2024-02-23T17:24:20.279Z,92.85
2024-02-23T17:26:48.410Z,92.86
2024-02-23T17:29:16.346Z,92.70
2024-02-23T17:31:44.769Z,92.76
2024-02-23T17:34:17.404Z,92.77
2024-02-23T17:36:47.238Z,92.84
2024-02-23T17:39:17.061Z,93.12
2024-02-23T17:41:45.612Z,92.94
2024-02-23T17:44:13.729Z,92.72
2024-02-23T17:46:43.398Z,93.32
2024-02-23T17:49:12.262Z,92.90
2024-02-23T17:51:40.854Z,92.95
2024-02-23T17:54:09.375Z,92.92
2024-02-23T17:56:37.708Z,93.27
2024-02-23T17:59:06.313Z,93.11
2024-02-23T18:01:34.795Z,92.96
2024-02-23T18:04:02.991Z,93.30
2024-02-23T18:06:31.373Z,93.21
2024-02-23T18:08:59.321Z,93.51
2024-02-23T18:11:29.355Z,93.32
2024-02-23T18:13:57.420Z,93.42
2024-02-23T18:16:25.738Z,93.63
2024-02-23T18:18:54.564Z,93.64
2024-02-23T18:21:23.376Z,93.46
2024-02-23T18:23:51.286Z,93.36
2024-02-23T18:26:19.619Z,93.64
2024-02-23T18:28:47.538Z,93.40
2024-02-23T18:31:20.612Z,93.45
2024-02-23T18:33:48.690Z,93.82
2024-02-23T18:36:17.406Z,93.96
2024-02-23T18:38:45.904Z,93.26
2024-02-23T18:41:14.544Z,93.59
2024-02-23T18:43:44.475Z,93.37
2024-02-23T18:46:13.977Z,93.38
2024-02-23T18:48:42.082Z,93.40
2024-02-23T18:51:11.468Z,93.20
2024-02-23T18:53:40.759Z,93.30
2024-02-23T18:56:09.887Z,92.92
2024-02-23T18:58:37.829Z,93.35
2024-02-23T19:01:08.254Z,93.02
2024-02-23T19:03:36.882Z,93.03
2024-02-23T19:06:06.351Z,93.16
2024-02-23T19:08:34.435Z,93.35
2024-02-23T19:11:05.074Z,93.42
2024-02-23T19:13:33.000Z,92.84
2024-02-23T19:16:01.224Z,92.93
2024-02-23T19:18:29.098Z,93.49
2024-02-23T19:20:57.310Z,93.41
2024-02-23T19:23:25.325Z,93.20
2024-02-23T19:25:53.589Z,93.37
2024-02-23T19:28:21.413Z,93.19
2024-02-23T19:30:49.481Z,93.44
2024-02-23T19:33:17.249Z,93.49
2024-02-23T19:35:45.479Z,93.73
2024-02-23T19:38:13.565Z,93.79
2024-02-23T19:40:41.751Z,93.40
2024-02-23T19:43:09.656Z,93.47
2024-02-23T19:45:37.847Z,93.75
2024-02-23T19:48:06.070Z,93.68
2024-02-23T19:50:34.322Z,93.73
2024-02-23T19:53:02.222Z,93.93
2024-02-23T19:55:31.170Z,93.95
2024-02-23T19:57:59.620Z,93.62
2024-02-23T20:00:28.650Z,93.35
2024-02-23T20:02:56.774Z,93.29
2024-02-23T20:05:27.326Z,93.09
2024-02-23T20:07:55.719Z,93.03
2024-02-23T20:10:24.051Z,92.81
2024-02-23T20:12:52.056Z,92.98
2024-02-23T20:15:20.314Z,92.98
2024-02-23T20:17:48.346Z,92.89
2024-02-23T20:20:18.608Z,92.78
2024-02-23T20:22:46.445Z,92.93
2024-02-23T20:25:14.640Z,92.85
2024-02-23T20:27:42.634Z,92.14
2024-02-23T20:30:11.573Z,92.50
2024-02-23T20:32:39.700Z,92.21
2024-02-23T20:35:09.531Z,92.29
2024-02-23T20:37:39.175Z,92.18
2024-02-23T20:40:09.748Z,92.13
2024-02-23T20:42:37.710Z,92.11
2024-02-23T20:45:08.507Z,92.52
2024-02-23T20:47:36.630Z,92.52
2024-02-23T20:50:06.162Z,92.38
2024-02-23T20:52:34.085Z,92.60
2024-02-23T20:55:02.271Z,92.47
2024-02-23T20:57:30.363Z,92.31
2024-02-23T20:59:58.986Z,92.17
2024-02-23T21:02:26.925Z,92.39
2024-02-23T21:04:55.197Z,92.56
2024-02-23T21:07:23.113Z,92.67
2024-02-23T21:09:51.262Z,92.67
2024-02-23T21:12:19.206Z,92.37
2024-02-23T21:14:48.420Z,92.82
2024-02-23T21:17:17.602Z,92.88
2024-02-23T21:19:45.694Z,92.92
2024-02-23T21:22:13.522Z,92.63
2024-02-23T21:24:45.922Z,92.52
2024-02-23T21:27:15.176Z,92.61
2024-02-23T21:29:45.397Z,92.74
2024-02-23T21:32:13.865Z,92.73
2024-02-23T21:34:42.183Z,92.82
2024-02-23T21:37:10.085Z,92.97
2024-02-23T21:39:38.083Z,93.13
2024-02-23T21:42:06.215Z,92.72
2024-02-23T21:44:34.896Z,92.81
2024-02-23T21:47:02.716Z,92.90
2024-02-23T21:49:30.924Z,92.84
2024-02-23T21:52:04.346Z,93.05
2024-02-23T21:54:33.148Z,92.83
2024-02-23T21:57:01.973Z,92.73
2024-02-23T21:59:31.074Z,92.73
2024-02-23T22:02:06.315Z,92.72
2024-02-23T22:04:36.575Z,92.76
2024-02-23T22:07:05.225Z,92.71
2024-02-23T22:09:33.378Z,93.06
2024-02-23T22:12:02.791Z,92.85
2024-02-23T22:14:31.066Z,93.12
2024-02-23T22:16:58.894Z,93.23
2024-02-23T22:19:27.119Z,92.89
2024-02-23T22:21:55.479Z,93.18
2024-02-23T22:24:24.553Z,93.48
2024-02-23T22:26:52.578Z,93.43
2024-02-23T22:29:21.585Z,93.46
2024-02-23T22:31:49.578Z,93.32
2024-02-23T22:34:19.276Z,92.88
2024-02-23T22:36:47.283Z,92.74
2024-02-23T22:39:15.490Z,93.26
2024-02-23T22:41:43.600Z,93.30
2024-02-23T22:44:13.744Z,93.45
2024-02-23T22:46:42.060Z,93.59
2024-02-23T22:49:11.347Z,93.77
2024-02-23T22:51:44.039Z,93.67
2024-02-23T22:54:12.354Z,93.75
2024-02-23T22:56:40.186Z,93.77
2024-02-23T22:59:11.313Z,93.38
2024-02-23T23:01:42.657Z,93.33
2024-02-23T23:04:10.715Z,93.92
2024-02-23T23:06:41.991Z,93.86
2024-02-23T23:09:10.752Z,93.94
2024-02-23T23:11:42.130Z,94.06
2024-02-23T23:14:10.629Z,94.20
2024-02-23T23:16:38.586Z,93.88
2024-02-23T23:19:06.889Z,93.79
2024-02-23T23:21:34.946Z,94.65
2024-02-23T23:24:03.156Z,94.27
2024-02-23T23:26:31.043Z,94.73
2024-02-23T23:28:59.286Z,94.39
2024-02-23T23:31:29.032Z,94.09
2024-02-23T23:33:57.542Z,93.92
2024-02-23T23:36:25.767Z,94.25
2024-02-23T23:38:53.998Z,94.38
2024-02-23T23:41:22.713Z,94.31
2024-02-23T23:43:51.009Z,94.28
2024-02-23T23:46:18.861Z,93.95
2024-02-23T23:48:48.544Z,94.04
2024-02-23T23:51:16.836Z,94.36
2024-02-23T23:53:45.037Z,93.62
2024-02-23T23:56:13.093Z,94.06
2024-02-23T23:58:41.757Z,93.57
